Time;durP1;ratioP1;P1;durP2;ratioP2;P2;SDS_P1;SDS_P2;PMS_P1;PMS_P2;Temp;Humidity;BMP_temperature;BMP_pressure;BME280_temperature;BME280_humidity;BME280_pressure;Samples;Min_cycle;Max_cycle;Signal;HPM_P1;HPM_P2
2023/08/03 00:00:50;;;;;;;1;0.7;;;;;;;19.87;85.52148;926.3738;;;;
2023/08/03 00:03:17;;;;;;;0.7;0.7;;;;;;;20;84.69531;926.4047;;;;
2023/08/03 00:05:43;;;;;;;1;0.8;;;;;;;20.08;84.38477;926.2422;;;;
2023/08/03 00:08:09;;;;;;;1;0.9;;;;;;;20.19;84.12305;926.1305;;;;
2023/08/03 00:10:35;;;;;;;0.9;0.7;;;;;;;20.21;83.97656;926.1067;;;;
2023/08/03 00:13:01;;;;;;;2.8;0.8;;;;;;;20.06;84.95117;926.2456;;;;
2023/08/03 00:15:26;;;;;;;1.6;0.7;;;;;;;19.93;85.95313;926.2296;;;;
2023/08/03 00:17:52;;;;;;;1.9;0.6;;;;;;;19.9;86.60156;926.3253;;;;
2023/08/03 00:20:18;;;;;;;1;0.7;;;;;;;19.83;86.37695;926.3528;;;;
2023/08/03 00:22:46;;;;;;;0.7;0.7;;;;;;;19.89;85.87402;926.4519;;;;
2023/08/03 00:25:07;;;;;;;0.8;0.7;;;;;;;20.01;85.97852;926.6583;;;;
2023/08/03 00:27:33;;;;;;;0.9;0.7;;;;;;;19.95;84.56836;926.6536;;;;
2023/08/03 00:29:58;;;;;;;1.9;0.6;;;;;;;19.9;84.87305;926.5341;;;;
2023/08/03 00:32:28;;;;;;;0.9;0.5;;;;;;;19.67;87.08008;926.4244;;;;
2023/08/03 00:34:53;;;;;;;1.1;0.6;;;;;;;19.69;87.02734;926.4185;;;;
2023/08/03 00:37:18;;;;;;;1.1;0.6;;;;;;;19.77;86.75;926.5111;;;;
2023/08/03 00:39:43;;;;;;;0.7;0.7;;;;;;;19.86;87.05859;926.6116;;;;
2023/08/03 00:42:08;;;;;;;0.5;0.5;;;;;;;19.84;86.79688;926.8219;;;;
2023/08/03 00:44:34;;;;;;;0.8;0.6;;;;;;;19.76;87.45703;926.9269;;;;
2023/08/03 00:47:00;;;;;;;1.5;0.8;;;;;;;19.95;86.57324;926.7686;;;;
2023/08/03 00:49:27;;;;;;;2;1;;;;;;;20.04;86.69824;926.884;;;;
2023/08/03 00:51:52;;;;;;;2.5;0.7;;;;;;;20.06;86.46777;926.9317;;;;
2023/08/03 00:54:17;;;;;;;0.5;0.5;;;;;;;19.77;86.45801;926.8051;;;;
2023/08/03 00:56:44;;;;;;;0.5;0.5;;;;;;;19.6;88.10352;926.9529;;;;
2023/08/03 00:59:10;;;;;;;0.6;0.6;;;;;;;19.4;88.73926;926.9938;;;;
2023/08/03 01:01:36;;;;;;;0.9;0.6;;;;;;;19.22;92.55859;927.0184;;;;
2023/08/03 01:04:01;;;;;;;1.6;0.8;;;;;;;19.12;93.34082;927.0045;;;;
2023/08/03 01:06:27;;;;;;;2.2;0.8;;;;;;;19.21;93.63965;926.9694;;;;
2023/08/03 01:08:54;;;;;;;1;0.7;;;;;;;19.13;94.55371;927.0244;;;;
2023/08/03 01:11:22;;;;;;;0.6;0.6;;;;;;;19.16;94.45703;927.0529;;;;
2023/08/03 01:13:47;;;;;;;0.9;0.4;;;;;;;19.19;95.00977;927.0809;;;;
2023/08/03 01:16:15;;;;;;;0.8;0.8;;;;;;;19.26;95.33789;927.0469;;;;
2023/08/03 01:18:42;;;;;;;1.2;0.6;;;;;;;19.2;95.51074;927.1057;;;;
2023/08/03 01:21:08;;;;;;;2.1;0.7;;;;;;;19.1;96.22461;927.0754;;;;
2023/08/03 01:23:33;;;;;;;1.5;0.9;;;;;;;18.98;97.41895;926.9714;;;;
2023/08/03 01:25:59;;;;;;;1;0.7;;;;;;;19.08;96.43066;926.9578;;;;
2023/08/03 01:28:24;;;;;;;1;0.5;;;;;;;19.09;95.25391;926.7866;;;;
2023/08/03 01:30:49;;;;;;;0.9;0.7;;;;;;;19.1;95.25586;926.8748;;;;
2023/08/03 01:33:14;;;;;;;1.3;0.6;;;;;;;19.1;95.48926;926.8546;;;;
2023/08/03 01:35:43;;;;;;;0.7;0.6;;;;;;;19.19;94.43945;926.8307;;;;
2023/08/03 01:38:08;;;;;;;0.6;0.5;;;;;;;19.06;94.93555;926.8722;;;;
2023/08/03 01:40:33;;;;;;;0.5;0.4;;;;;;;19.06;95.9375;926.9539;;;;
2023/08/03 01:42:58;;;;;;;1.5;0.7;;;;;;;19.12;96.60156;926.9958;;;;
2023/08/03 01:45:24;;;;;;;2.2;0.9;;;;;;;18.82;96.19824;926.9608;;;;
2023/08/03 01:47:49;;;;;;;1;0.9;;;;;;;18.64;97.64551;926.9639;;;;
2023/08/03 01:50:14;;;;;;;1.4;0.6;;;;;;;18.45;99.19824;927.0069;;;;
2023/08/03 01:52:40;;;;;;;1;0.5;;;;;;;18.46;99.57324;927.051;;;;
2023/08/03 01:55:05;;;;;;;1.4;0.6;;;;;;;18.56;100;927.0226;;;;
2023/08/03 01:57:33;;;;;;;0.9;0.7;;;;;;;18.68;100;927.0477;;;;
2023/08/03 01:59:58;;;;;;;1.5;0.6;;;;;;;18.71;100;926.9869;;;;
2023/08/03 02:02:26;;;;;;;1.3;0.9;;;;;;;18.83;99.86621;926.9855;;;;
2023/08/03 02:04:51;;;;;;;0.7;0.7;;;;;;;18.96;98.58105;926.943;;;;
2023/08/03 02:07:17;;;;;;;1.9;0.9;;;;;;;18.92;98.68555;926.8973;;;;
2023/08/03 02:09:43;;;;;;;0.7;0.6;;;;;;;18.99;99.37695;927.0574;;;;
2023/08/03 02:12:08;;;;;;;1.5;0.6;;;;;;;18.91;100;927.0672;;;;
2023/08/03 02:14:33;;;;;;;1.1;0.8;;;;;;;18.82;100;927.0558;;;;
2023/08/03 02:16:58;;;;;;;1.6;0.6;;;;;;;18.79;100;927.0706;;;;
2023/08/03 02:19:28;;;;;;;1;0.8;;;;;;;18.91;99.63965;927.0676;;;;
2023/08/03 02:21:56;;;;;;;1;0.6;;;;;;;18.92;99.79297;926.9633;;;;
2023/08/03 02:24:21;;;;;;;1.8;0.8;;;;;;;18.85;99.88184;926.9202;;;;
2023/08/03 02:26:46;;;;;;;0.9;0.7;;;;;;;18.83;100;926.9146;;;;
2023/08/03 02:29:11;;;;;;;0.8;0.8;;;;;;;18.86;100;926.878;;;;
2023/08/03 02:31:38;;;;;;;1.3;0.9;;;;;;;18.9;100;926.8416;;;;
2023/08/03 02:34:04;;;;;;;1.2;0.7;;;;;;;18.9;100;926.8408;;;;
2023/08/03 02:36:29;;;;;;;0.9;0.8;;;;;;;18.96;100;926.7996;;;;
2023/08/03 02:38:55;;;;;;;1.1;0.8;;;;;;;18.95;100;926.817;;;;
2023/08/03 02:41:19;;;;;;;1.4;0.7;;;;;;;18.94;100;926.7534;;;;
2023/08/03 02:43:45;;;;;;;1.6;0.9;;;;;;;18.97;100;926.6199;;;;
2023/08/03 02:46:12;;;;;;;1.1;0.7;;;;;;;19.02;99.7793;926.6375;;;;
2023/08/03 02:48:37;;;;;;;0.7;0.7;;;;;;;19.06;99.91699;926.7466;;;;
2023/08/03 02:51:03;;;;;;;1.7;0.8;;;;;;;19.07;100;926.7567;;;;
2023/08/03 02:53:28;;;;;;;2.1;0.9;;;;;;;19.05;100;926.717;;;;
2023/08/03 02:55:53;;;;;;;0.9;0.8;;;;;;;18.89;100;926.7668;;;;
2023/08/03 02:58:18;;;;;;;1.9;0.8;;;;;;;18.86;100;926.7328;;;;
2023/08/03 03:00:48;;;;;;;0.8;0.8;;;;;;;18.81;100;926.7095;;;;
2023/08/03 03:03:17;;;;;;;1.2;1;;;;;;;18.79;100;926.7706;;;;
2023/08/03 03:05:42;;;;;;;1.3;1;;;;;;;18.79;100;926.7402;;;;
2023/08/03 03:08:07;;;;;;;1.3;0.9;;;;;;;18.78;100;926.7478;;;;
2023/08/03 03:10:32;;;;;;;1.3;0.9;;;;;;;18.78;100;927.0678;;;;
2023/08/03 03:12:59;;;;;;;2.1;1.1;;;;;;;18.76;100;927.0502;;;;
2023/08/03 03:15:24;;;;;;;1.3;1;;;;;;;18.67;100;927.0988;;;;
2023/08/03 03:17:51;;;;;;;3;1.1;;;;;;;18.65;100;927.1264;;;;
2023/08/03 03:20:16;;;;;;;2.1;1;;;;;;;18.75;100;927.149;;;;
2023/08/03 03:22:44;;;;;;;1.4;1.2;;;;;;;18.67;100;927.1965;;;;
2023/08/03 03:25:09;;;;;;;1.4;1;;;;;;;18.78;100;927.1252;;;;
2023/08/03 03:27:37;;;;;;;2;1;;;;;;;18.84;100;927.1019;;;;
2023/08/03 03:30:02;;;;;;;2.8;1;;;;;;;18.84;100;927.2712;;;;
2023/08/03 03:32:27;;;;;;;1.5;1.2;;;;;;;18.87;100;927.3759;;;;
2023/08/03 03:34:52;;;;;;;2.2;1.2;;;;;;;18.95;100;927.3364;;;;
2023/08/03 03:37:19;;;;;;;2;1;;;;;;;18.95;100;927.356;;;;
2023/08/03 03:39:44;;;;;;;1.6;1.1;;;;;;;18.87;100;927.3597;;;;
2023/08/03 03:42:10;;;;;;;2.6;1.1;;;;;;;18.9;100;927.332;;;;
2023/08/03 03:44:36;;;;;;;1.8;1.4;;;;;;;18.83;100;927.2986;;;;
2023/08/03 03:47:04;;;;;;;1.3;1.1;;;;;;;18.76;100;927.3452;;;;
2023/08/03 03:49:29;;;;;;;1.4;1.3;;;;;;;18.75;100;927.4579;;;;
2023/08/03 03:51:54;;;;;;;1.2;1.1;;;;;;;18.64;100;927.4445;;;;
2023/08/03 03:54:19;;;;;;;1.8;1.4;;;;;;;18.63;100;927.4745;;;;
2023/08/03 03:56:46;;;;;;;1.9;1.4;;;;;;;18.55;100;927.4458;;;;
2023/08/03 03:59:11;;;;;;;1.3;1.2;;;;;;;18.63;100;927.4649;;;;
2023/08/03 04:02:40;;;;;;;1.6;1.1;;;;;;;18.62;100;927.4157;;;;
2023/08/03 04:05:05;;;;;;;1.8;1.3;;;;;;;18.62;100;927.4149;;;;
2023/08/03 04:07:33;;;;;;;1.6;1.5;;;;;;;18.59;100;927.4097;;;;
2023/08/03 04:09:58;;;;;;;1.8;1.4;;;;;;;18.57;100;927.4496;;;;
2023/08/03 04:12:27;;;;;;;2.2;1.2;;;;;;;18.55;100;927.4559;;;;
2023/08/03 04:14:52;;;;;;;0.9;0.9;;;;;;;18.6;100;927.485;;;;
2023/08/03 04:17:20;;;;;;;2.3;1.3;;;;;;;18.59;100;927.5584;;;;
2023/08/03 04:19:45;;;;;;;1.3;1.2;;;;;;;18.55;100;927.5932;;;;
2023/08/03 04:22:14;;;;;;;1.6;1.4;;;;;;;18.44;100;927.6305;;;;
2023/08/03 04:24:39;;;;;;;1.2;1.1;;;;;;;18.44;100;927.6005;;;;
2023/08/03 04:27:04;;;;;;;1.8;1.2;;;;;;;18.54;100;927.5421;;;;
2023/08/03 04:29:29;;;;;;;1.7;1.3;;;;;;;18.6;100;927.6;;;;
2023/08/03 04:31:57;;;;;;;2;1.4;;;;;;;18.63;100;927.5425;;;;
2023/08/03 04:34:22;;;;;;;1.5;1.2;;;;;;;18.52;100;927.5114;;;;
2023/08/03 04:36:51;;;;;;;1.2;1.1;;;;;;;18.59;100;927.4659;;;;
2023/08/03 04:39:16;;;;;;;1.4;1.2;;;;;;;18.61;100;927.495;;;;
2023/08/03 04:41:44;;;;;;;1.5;1.4;;;;;;;18.7;100;927.5114;;;;
2023/08/03 04:44:19;;;;;;;1.3;1.1;;;;;;;18.76;100;927.5212;;;;
2023/08/03 04:46:46;;;;;;;1.6;1.3;;;;;;;18.74;100;927.5734;;;;
2023/08/03 04:49:13;;;;;;;1.7;1.1;;;;;;;18.65;100;927.5745;;;;
2023/08/03 04:51:36;;;;;;;1.6;1.2;;;;;;;18.7;100;927.5453;;;;
2023/08/03 04:54:01;;;;;;;2;1.2;;;;;;;18.75;100;927.5394;;;;
2023/08/03 04:56:26;;;;;;;1.2;1.1;;;;;;;18.68;100;927.5313;;;;
2023/08/03 04:58:52;;;;;;;1.1;1;;;;;;;18.52;100;927.6008;;;;
2023/08/03 05:01:17;;;;;;;1.2;1.1;;;;;;;18.33;100;927.6149;;;;
2023/08/03 05:03:46;;;;;;;1.7;1.4;;;;;;;18.37;100;927.6367;;;;
2023/08/03 05:06:10;;;;;;;2;1.2;;;;;;;18.43;100;927.6639;;;;
2023/08/03 05:08:36;;;;;;;1.2;1.1;;;;;;;18.49;100;927.7301;;;;
2023/08/03 05:11:01;;;;;;;2.6;1.3;;;;;;;18.54;100;927.7242;;;;
2023/08/03 05:13:30;;;;;;;1.6;1.4;;;;;;;18.52;100;927.6683;;;;
2023/08/03 05:15:55;;;;;;;1.7;1.2;;;;;;;18.64;100;927.6727;;;;
2023/08/03 05:18:23;;;;;;;1.7;1.4;;;;;;;18.72;99.9209;927.6906;;;;
2023/08/03 05:20:48;;;;;;;1.5;1.3;;;;;;;18.76;99.10449;927.7043;;;;
2023/08/03 05:23:14;;;;;;;1.5;1.4;;;;;;;18.8;98.74121;927.6447;;;;
2023/08/03 05:25:53;;;;;;;2.5;1.4;;;;;;;18.85;98.25293;927.7527;;;;
2023/08/03 05:28:15;;;;;;;2.2;1.4;;;;;;;18.84;97.78516;927.8442;;;;
2023/08/03 05:30:41;;;;;;;1.4;1.3;;;;;;;18.65;98.4082;927.9293;;;;
2023/08/03 05:33:07;;;;;;;1.7;1.3;;;;;;;18.69;98.60254;927.8278;;;;
2023/08/03 05:35:33;;;;;;;2.1;1.3;;;;;;;18.63;99.80762;927.8086;;;;
2023/08/03 05:37:58;;;;;;;1.4;1.3;;;;;;;18.6;100;927.7689;;;;
2023/08/03 05:40:25;;;;;;;3.2;1.5;;;;;;;18.74;99.91504;927.7332;;;;
2023/08/03 05:42:50;;;;;;;1.5;1.3;;;;;;;18.77;99.5957;927.7886;;;;
2023/08/03 05:45:19;;;;;;;2.1;1.5;;;;;;;18.79;99.85547;927.8088;;;;
2023/08/03 05:47:44;;;;;;;1.8;1.5;;;;;;;18.68;100;927.8428;;;;
2023/08/03 05:50:09;;;;;;;1.6;1.3;;;;;;;18.65;100;927.8406;;;;
2023/08/03 05:52:38;;;;;;;2;1.5;;;;;;;18.68;100;927.8878;;;;
2023/08/03 05:55:05;;;;;;;1.3;1.2;;;;;;;18.75;100;927.8908;;;;
2023/08/03 05:57:30;;;;;;;1.7;1.6;;;;;;;18.72;100;927.8332;;;;
2023/08/03 05:59:57;;;;;;;2.1;1.4;;;;;;;18.76;100;927.8856;;;;
2023/08/03 06:02:22;;;;;;;1.5;1.3;;;;;;;18.84;100;927.8497;;;;
2023/08/03 06:04:47;;;;;;;1.4;1.3;;;;;;;18.83;100;927.8536;;;;
2023/08/03 06:07:13;;;;;;;1.8;1.2;;;;;;;18.71;100;927.8531;;;;
2023/08/03 06:09:38;;;;;;;1.9;1.3;;;;;;;18.74;100;927.9299;;;;
2023/08/03 06:12:04;;;;;;;1.5;1.4;;;;;;;18.66;100;927.8926;;;;
2023/08/03 06:14:32;;;;;;;1.7;1.3;;;;;;;18.53;100;927.919;;;;
2023/08/03 06:16:56;;;;;;;1.5;1.4;;;;;;;18.51;100;927.9609;;;;
2023/08/03 06:19:22;;;;;;;1.4;1.3;;;;;;;18.57;100;927.9617;;;;
2023/08/03 06:21:47;;;;;;;2;1.7;;;;;;;18.54;100;927.9446;;;;
2023/08/03 06:24:13;;;;;;;2.6;1.7;;;;;;;18.54;100;927.9055;;;;
2023/08/03 06:26:39;;;;;;;2.8;1.9;;;;;;;18.71;100;927.9846;;;;
2023/08/03 06:29:49;;;;;;;1.7;1.5;;;;;;;18.76;100;928.0712;;;;
2023/08/03 06:32:19;;;;;;;3.1;1.6;;;;;;;18.65;100;928.0706;;;;
2023/08/03 06:37:33;;;;;;;2.1;1.8;;;;;;;18.54;100;928.2022;;;;
2023/08/03 06:39:58;;;;;;;4.2;1.7;;;;;;;18.56;100;928.2176;;;;
2023/08/03 06:42:23;;;;;;;1.7;1.4;;;;;;;18.52;99.87793;928.2101;;;;
2023/08/03 06:44:51;;;;;;;2.4;1.9;;;;;;;18.54;100;928.1958;;;;
2023/08/03 06:47:16;;;;;;;2.4;1.7;;;;;;;18.63;100;928.2141;;;;
2023/08/03 06:49:43;;;;;;;2;1.6;;;;;;;18.64;99.73926;928.2839;;;;
2023/08/03 06:52:08;;;;;;;2.2;1.5;;;;;;;18.75;99.24219;928.3264;;;;
2023/08/03 06:54:36;;;;;;;2.3;1.7;;;;;;;18.91;98.27832;928.386;;;;
2023/08/03 06:57:01;;;;;;;1.8;1.6;;;;;;;18.98;97.07031;928.4455;;;;
2023/08/03 06:59:26;;;;;;;2;1.2;;;;;;;18.97;96.18359;928.4773;;;;
2023/08/03 07:01:54;;;;;;;1.9;1.3;;;;;;;18.95;95.7373;928.5497;;;;
2023/08/03 07:04:16;;;;;;;1.3;1.2;;;;;;;18.98;96.05957;928.6025;;;;
2023/08/03 07:06:43;;;;;;;2.5;1.5;;;;;;;18.93;96.18555;928.5394;;;;
2023/08/03 07:09:08;;;;;;;1.8;1.4;;;;;;;18.85;96.72754;928.6755;;;;
2023/08/03 07:11:34;;;;;;;2;1.3;;;;;;;18.79;97.41211;928.7008;;;;
2023/08/03 07:13:59;;;;;;;2.6;1.6;;;;;;;18.82;97.44336;928.6619;;;;
2023/08/03 07:16:28;;;;;;;2;1.5;;;;;;;18.82;97.84863;928.619;;;;
2023/08/03 07:18:52;;;;;;;1.6;1.5;;;;;;;18.94;97.60938;928.6439;;;;
2023/08/03 07:21:19;;;;;;;2.2;1.6;;;;;;;19.1;95.74512;928.6395;;;;
2023/08/03 07:23:44;;;;;;;1.9;1.4;;;;;;;19.15;93.6748;928.6809;;;;
2023/08/03 07:26:12;;;;;;;1.4;1.3;;;;;;;19.29;93.54004;928.6809;;;;
2023/08/03 07:28:37;;;;;;;2.3;1.4;;;;;;;19.21;93.98828;928.6384;;;;
2023/08/03 07:31:03;;;;;;;1.7;1.3;;;;;;;19.31;93.71875;928.6831;;;;
2023/08/03 07:33:28;;;;;;;1.9;1.5;;;;;;;19.21;94.78027;928.7539;;;;
2023/08/03 07:35:55;;;;;;;3.5;1.4;;;;;;;19.42;93.39258;928.7646;;;;
2023/08/03 07:38:20;;;;;;;1.4;1.3;;;;;;;19.57;90.19629;928.7654;;;;
2023/08/03 07:40:47;;;;;;;2;1.2;;;;;;;19.63;89.4375;928.766;;;;
2023/08/03 07:43:12;;;;;;;2.1;1.4;;;;;;;19.7;88.09961;928.8056;;;;
2023/08/03 07:45:40;;;;;;;1.6;1.4;;;;;;;19.62;90.75293;928.8217;;;;
2023/08/03 07:48:05;;;;;;;1.4;1.2;;;;;;;19.83;88.46484;928.8986;;;;
2023/08/03 07:50:32;;;;;;;1.7;1.4;;;;;;;19.87;88.63574;929.0206;;;;
2023/08/03 07:52:57;;;;;;;1.7;1.1;;;;;;;19.94;88.75293;928.9127;;;;
2023/08/03 07:55:26;;;;;;;1.5;1.2;;;;;;;19.81;86.69824;928.9686;;;;
2023/08/03 07:57:51;;;;;;;1.4;1.1;;;;;;;20.01;87.11035;928.9752;;;;
2023/08/03 08:00:18;;;;;;;1.6;1.2;;;;;;;20.29;84.5625;929.009;;;;
2023/08/03 08:02:43;;;;;;;1.8;1.4;;;;;;;20.44;86.16797;928.9903;;;;
2023/08/03 08:05:10;;;;;;;2.2;1.2;;;;;;;20.61;84.40039;929.0316;;;;
2023/08/03 08:07:35;;;;;;;2.2;1.5;;;;;;;20.81;83.63574;929.0614;;;;
2023/08/03 08:10:05;;;;;;;2.2;1.4;;;;;;;20.96;82.20117;929.0599;;;;
2023/08/03 08:12:32;;;;;;;1.8;1.4;;;;;;;21.17;80.92969;929.1269;;;;
2023/08/03 08:14:57;;;;;;;1.9;1.5;;;;;;;21.2;79.51855;929.1937;;;;
2023/08/03 08:17:24;;;;;;;3.2;1.6;;;;;;;21.24;81.25684;929.1986;;;;
2023/08/03 08:19:49;;;;;;;2.8;1.5;;;;;;;21.45;81.0957;929.2252;;;;
2023/08/03 08:22:19;;;;;;;2.1;1.5;;;;;;;21.66;79.07422;929.1683;;;;
2023/08/03 08:24:44;;;;;;;1.3;1.2;;;;;;;21.8;75.97266;929.1436;;;;
2023/08/03 08:27:12;;;;;;;1.5;1.3;;;;;;;22.11;71.22852;929.0436;;;;
2023/08/03 08:29:37;;;;;;;1.4;1.1;;;;;;;22.95;71.23535;929.0027;;;;
2023/08/03 08:32:04;;;;;;;3.4;1.4;;;;;;;24.65;64.16211;929.0579;;;;
2023/08/03 08:34:29;;;;;;;0.9;0.9;;;;;;;25.62;57.56641;929.0037;;;;
2023/08/03 08:36:57;;;;;;;3.2;1.5;;;;;;;26.98;56.28516;928.9003;;;;
2023/08/03 08:39:23;;;;;;;2.3;1.2;;;;;;;27.31;53.13379;928.9933;;;;
2023/08/03 08:41:49;;;;;;;1.7;1;;;;;;;28.63;49.22266;928.8535;;;;
2023/08/03 08:44:14;;;;;;;2.6;1.6;;;;;;;28.21;48.61816;928.9372;;;;
2023/08/03 08:46:41;;;;;;;1.9;1.2;;;;;;;27.96;46.86816;928.9726;;;;
2023/08/03 08:49:06;;;;;;;2.4;1.6;;;;;;;28.1;49.54492;928.9199;;;;
2023/08/03 08:51:32;;;;;;;1.4;1.3;;;;;;;30.02;44.375;928.9934;;;;
2023/08/03 08:53:57;;;;;;;3.1;1.3;;;;;;;29.16;47.29102;929.0115;;;;
2023/08/03 08:56:23;;;;;;;1.9;1.1;;;;;;;29.6;42.76074;928.9302;;;;
2023/08/03 08:58:48;;;;;;;2.6;1.4;;;;;;;29.07;44.1748;928.9252;;;;
2023/08/03 09:01:16;;;;;;;2.8;1.3;;;;;;;27.76;44.27148;928.9244;;;;
2023/08/03 09:03:41;;;;;;;1.8;1.4;;;;;;;28.67;47.52539;928.9529;;;;
2023/08/03 09:06:10;;;;;;;3.7;1.2;;;;;;;28.6;46.64941;928.9492;;;;
2023/08/03 09:08:34;;;;;;;3.2;1.1;;;;;;;30.32;43.99902;929.0211;;;;
2023/08/03 09:11:00;;;;;;;2.6;1.1;;;;;;;29.42;46.88965;929.0041;;;;
2023/08/03 09:13:28;;;;;;;1.9;1.3;;;;;;;28.77;48.98828;929.0065;;;;
2023/08/03 09:15:53;;;;;;;1.3;1.2;;;;;;;28.28;50.95508;929.0137;;;;
2023/08/03 09:18:27;;;;;;;2.5;1.4;;;;;;;27.85;50.44434;928.9728;;;;
2023/08/03 09:20:53;;;;;;;3.7;1.3;;;;;;;28.27;46.94922;928.9497;;;;
2023/08/03 09:23:18;;;;;;;2.4;1.4;;;;;;;29.39;44.09863;929.0471;;;;
2023/08/03 09:25:45;;;;;;;1.6;1.2;;;;;;;28.6;46.32813;929.1245;;;;
2023/08/03 09:28:10;;;;;;;2.7;1.3;;;;;;;28.4;49.15039;929.101;;;;
2023/08/03 09:30:36;;;;;;;3.6;1.3;;;;;;;28.13;47.56445;929.1334;;;;
2023/08/03 09:33:01;;;;;;;3.3;1.6;;;;;;;26.12;53.12402;929.2385;;;;
2023/08/03 09:35:31;;;;;;;2.6;1.3;;;;;;;25.57;54.87793;929.2793;;;;
2023/08/03 09:37:59;;;;;;;2.5;1.2;;;;;;;25.22;55.00195;929.2497;;;;
2023/08/03 09:40:23;;;;;;;2.3;1.4;;;;;;;25.21;55.75488;929.1894;;;;
2023/08/03 09:42:47;;;;;;;2.5;1.4;;;;;;;25.25;55.4873;929.2413;;;;
2023/08/03 09:45:16;;;;;;;3.1;1.6;;;;;;;25.01;53.74805;929.2983;;;;
2023/08/03 09:47:43;;;;;;;2.4;1.4;;;;;;;24.67;54.54395;929.3599;;;;
2023/08/03 09:50:09;;;;;;;3.1;1.8;;;;;;;24.24;57.10645;929.3797;;;;
2023/08/03 09:52:34;;;;;;;2.3;1.3;;;;;;;23.74;61.83105;929.3942;;;;
2023/08/03 09:54:59;;;;;;;1.5;1.3;;;;;;;23.29;63.71973;929.5139;;;;
2023/08/03 09:57:24;;;;;;;2.4;1.3;;;;;;;23.25;58.81348;929.4697;;;;
2023/08/03 09:59:50;;;;;;;2.5;1.2;;;;;;;23.21;62.61621;929.4729;;;;
2023/08/03 10:02:19;;;;;;;4.1;1.5;;;;;;;23.26;60.24902;929.4567;;;;
2023/08/03 10:04:44;;;;;;;3.2;1.6;;;;;;;23.71;61.0625;929.5306;;;;
2023/08/03 10:07:09;;;;;;;3.4;1.4;;;;;;;23.76;58.83301;929.4972;;;;
2023/08/03 10:09:34;;;;;;;4.3;1.5;;;;;;;24.1;57.49023;929.4816;;;;
2023/08/03 10:12:31;;;;;;;3.9;1.6;;;;;;;24.23;54.95117;929.4232;;;;
2023/08/03 10:14:48;;;;;;;3;1.2;;;;;;;24.3;52.40137;929.52;;;;
2023/08/03 10:17:15;;;;;;;2.3;1.3;;;;;;;24.44;53.36133;929.608;;;;
2023/08/03 10:19:40;;;;;;;2.2;1.2;;;;;;;24.27;55.56738;929.6831;;;;
2023/08/03 10:22:06;;;;;;;1.5;1;;;;;;;23.55;56.5;929.668;;;;
2023/08/03 10:24:31;;;;;;;2.6;1.2;;;;;;;23.79;58.86133;929.6516;;;;
2023/08/03 10:26:57;;;;;;;2.1;1.2;;;;;;;24;53.7793;929.7394;;;;
2023/08/03 10:29:23;;;;;;;3.8;1.5;;;;;;;24.2;51.4707;929.713;;;;
2023/08/03 10:31:48;;;;;;;2.4;1.3;;;;;;;24.12;52.2041;929.6822;;;;
2023/08/03 10:34:14;;;;;;;4.1;1;;;;;;;24.29;52.25879;929.6833;;;;
2023/08/03 10:36:39;;;;;;;3.7;1.3;;;;;;;23.93;52.55859;929.6674;;;;
2023/08/03 10:39:04;;;;;;;1.7;1.1;;;;;;;23.95;50.92578;929.715;;;;
2023/08/03 10:41:36;;;;;;;2.6;1.3;;;;;;;24.06;51.50195;929.7282;;;;
2023/08/03 10:43:55;;;;;;;3.3;1.1;;;;;;;24.16;50.52441;929.7719;;;;
2023/08/03 10:46:22;;;;;;;2.2;0.9;;;;;;;24.26;50.37109;929.8228;;;;
2023/08/03 10:48:47;;;;;;;1.9;1.1;;;;;;;24.21;50.94336;929.8653;;;;
2023/08/03 10:51:13;;;;;;;2.2;1.2;;;;;;;24.16;51.3252;929.8527;;;;
2023/08/03 10:53:38;;;;;;;3.1;1.2;;;;;;;23.71;55.65039;929.8477;;;;
2023/08/03 10:56:03;;;;;;;2.7;1.1;;;;;;;23.75;53.92578;929.8928;;;;
2023/08/03 10:58:28;;;;;;;2.5;1.2;;;;;;;23.87;53.38672;929.9115;;;;
2023/08/03 11:00:56;;;;;;;3.1;1.1;;;;;;;23.92;52.36914;929.9714;;;;
2023/08/03 11:03:21;;;;;;;1.8;1.1;;;;;;;23.64;56.26563;930.0466;;;;
2023/08/03 11:05:48;;;;;;;2.4;1.3;;;;;;;23.44;53.46582;929.9244;;;;
2023/08/03 11:08:13;;;;;;;4;1.3;;;;;;;23.5;56.05957;929.8586;;;;
2023/08/03 11:10:38;;;;;;;2.7;1.2;;;;;;;23.36;56.19434;929.8708;;;;
2023/08/03 11:13:05;;;;;;;2.6;1.1;;;;;;;23.59;56.15234;929.8851;;;;
2023/08/03 11:15:31;;;;;;;1.7;1;;;;;;;23.52;56.37988;929.8508;;;;
2023/08/03 11:17:57;;;;;;;3.2;1.3;;;;;;;23.65;52.34961;929.8698;;;;
2023/08/03 11:20:22;;;;;;;3.8;1.4;;;;;;;23.86;50.07813;929.8239;;;;
2023/08/03 11:22:48;;;;;;;1.9;1.1;;;;;;;24.09;50.375;929.8273;;;;
2023/08/03 11:25:13;;;;;;;2.3;1.2;;;;;;;24.16;51.92578;929.8041;;;;
2023/08/03 11:27:43;;;;;;;2.1;1.2;;;;;;;24.21;49.76465;929.8309;;;;
2023/08/03 11:30:14;;;;;;;2.7;1.4;;;;;;;24.01;51.99023;929.7252;;;;
2023/08/03 11:32:44;;;;;;;1.9;1.1;;;;;;;24.29;53.47266;929.71;;;;
2023/08/03 11:35:10;;;;;;;3.2;1.4;;;;;;;24.3;52.25977;929.7389;;;;
2023/08/03 11:37:37;;;;;;;2.6;1;;;;;;;24.57;52.38574;929.6919;;;;
2023/08/03 11:40:04;;;;;;;2.3;1.2;;;;;;;25.24;50.8584;929.8514;;;;
2023/08/03 11:42:28;;;;;;;2.1;1.2;;;;;;;25.07;51.47754;929.782;;;;
2023/08/03 11:44:53;;;;;;;4.4;1.3;;;;;;;25.19;49.21289;929.805;;;;
2023/08/03 11:53:03;;;;;;;3;1.2;;;;;;;24.35;51.64063;929.7849;;;;
2023/08/03 11:55:32;;;;;;;1.9;1;;;;;;;24.18;52.28125;929.7417;;;;
2023/08/03 11:58:12;;;;;;;4.2;1;;;;;;;24.29;52.24707;929.7776;;;;
2023/08/03 12:00:22;;;;;;;2.9;1;;;;;;;24.46;52.83301;929.8139;;;;
2023/08/03 12:02:47;;;;;;;2.1;1.2;;;;;;;24.12;52.74609;929.827;;;;
2023/08/03 12:05:16;;;;;;;1.8;1;;;;;;;24.21;53.27539;929.8334;;;;
2023/08/03 12:07:45;;;;;;;3.4;1.7;;;;;;;24.01;53.7334;929.9217;;;;
2023/08/03 12:10:11;;;;;;;3.3;1.4;;;;;;;24.14;52.52441;929.8805;;;;
2023/08/03 12:12:37;;;;;;;3.7;1.4;;;;;;;24.25;55.69531;929.8484;;;;
2023/08/03 12:15:02;;;;;;;4.2;1.2;;;;;;;24.28;52.08105;929.9202;;;;
2023/08/03 12:17:31;;;;;;;3.5;1.3;;;;;;;24.08;52.53027;929.8904;;;;
2023/08/03 12:19:55;;;;;;;1.8;1;;;;;;;23.87;55.44727;929.9303;;;;
2023/08/03 12:22:21;;;;;;;3.2;1.1;;;;;;;23.63;55.94727;929.9958;;;;
2023/08/03 12:24:46;;;;;;;3;1.2;;;;;;;23.52;52.60449;929.9691;;;;
2023/08/03 12:27:13;;;;;;;1.7;1;;;;;;;23.52;55.12109;929.9745;;;;
2023/08/03 12:29:38;;;;;;;2.3;1.2;;;;;;;23.54;56.32227;929.9906;;;;
2023/08/03 12:32:05;;;;;;;3.3;1.3;;;;;;;23.43;57.70801;930.0428;;;;
2023/08/03 12:34:30;;;;;;;2.4;1.4;;;;;;;23.22;58.75098;930.1277;;;;
2023/08/03 12:36:55;;;;;;;2.2;1.2;;;;;;;23.12;56.63477;930.1201;;;;
2023/08/03 12:39:21;;;;;;;2.9;1.2;;;;;;;23.11;56.85645;930.1501;;;;
2023/08/03 12:41:49;;;;;;;2.5;1.2;;;;;;;23.19;55.48047;930.1806;;;;
2023/08/03 12:44:14;;;;;;;2.6;1.2;;;;;;;23.28;55.14941;930.1351;;;;
2023/08/03 12:46:40;;;;;;;3.3;1.3;;;;;;;23.41;52.46094;930.1113;;;;
2023/08/03 12:49:05;;;;;;;3.4;1.2;;;;;;;23.14;56.80078;930.1404;;;;
2023/08/03 12:51:31;;;;;;;1.9;1.1;;;;;;;23.22;57.09375;930.1144;;;;
2023/08/03 12:53:56;;;;;;;2.9;1.4;;;;;;;23.48;53.91699;930.1608;;;;
2023/08/03 12:56:22;;;;;;;2.1;1.3;;;;;;;23.19;56.31445;930.2366;;;;
2023/08/03 12:58:47;;;;;;;3.5;1.1;;;;;;;22.88;57.63672;930.2411;;;;
2023/08/03 13:01:15;;;;;;;3.9;1.4;;;;;;;22.56;58.54492;930.3433;;;;
2023/08/03 13:03:40;;;;;;;4.8;1.5;;;;;;;22.5;58.78418;930.3177;;;;
2023/08/03 13:06:09;;;;;;;3.6;1.2;;;;;;;22.19;60.1748;930.3533;;;;
2023/08/03 13:08:34;;;;;;;3.3;1.5;;;;;;;22.36;59.22266;930.4006;;;;
2023/08/03 13:11:02;;;;;;;3.8;1.2;;;;;;;21.93;60.82031;930.4216;;;;
2023/08/03 13:13:27;;;;;;;3.5;1.5;;;;;;;21.71;60.46094;930.5011;;;;
2023/08/03 13:15:54;;;;;;;2.9;1.4;;;;;;;21.39;61.55273;930.4988;;;;
2023/08/03 13:18:19;;;;;;;3.1;1.4;;;;;;;21.43;62.79785;930.3131;;;;
2023/08/03 13:20:48;;;;;;;2.2;1.3;;;;;;;21.42;63.76953;930.317;;;;
2023/08/03 13:23:17;;;;;;;1.8;1.3;;;;;;;21.37;63.26953;930.3095;;;;
2023/08/03 13:25:44;;;;;;;2.6;1.6;;;;;;;21.26;63.96777;930.3557;;;;
2023/08/03 13:28:09;;;;;;;2.7;1.4;;;;;;;21.23;61.90527;930.3811;;;;
2023/08/03 13:30:37;;;;;;;3;1.4;;;;;;;21.37;61.67773;930.5097;;;;
2023/08/03 13:33:02;;;;;;;2.5;1.5;;;;;;;21.48;60.24121;930.5447;;;;
2023/08/03 13:35:29;;;;;;;2.2;1.2;;;;;;;21.47;61.11719;930.5705;;;;
2023/08/03 13:37:54;;;;;;;2.3;1.4;;;;;;;21.56;62.73535;930.6286;;;;
2023/08/03 13:40:20;;;;;;;2.8;1.5;;;;;;;21.57;63.07617;930.632;;;;
2023/08/03 13:42:45;;;;;;;2;1.3;;;;;;;21.25;65.82813;930.6078;;;;
2023/08/03 13:45:10;;;;;;;2.4;1.3;;;;;;;21.11;67.79395;930.5804;;;;
2023/08/03 13:47:39;;;;;;;2.5;1.5;;;;;;;21.31;66.32715;930.6089;;;;
2023/08/03 13:50:03;;;;;;;3.8;1.4;;;;;;;21.37;65.1543;930.6432;;;;
2023/08/03 13:52:30;;;;;;;2.1;1.3;;;;;;;21.44;65.76172;930.745;;;;
2023/08/03 13:54:55;;;;;;;4.9;2;;;;;;;21.26;64.89258;930.7703;;;;
2023/08/03 13:57:21;;;;;;;3.8;1.8;;;;;;;21.33;65.48828;930.8322;;;;
2023/08/03 13:59:46;;;;;;;2.9;1.2;;;;;;;21.38;65.76367;930.8834;;;;
2023/08/03 14:02:13;;;;;;;2.3;1.4;;;;;;;21.21;65.41113;930.7949;;;;
2023/08/03 14:04:38;;;;;;;2.3;1.4;;;;;;;21.37;66.39648;930.7605;;;;
2023/08/03 14:07:05;;;;;;;2.9;1.4;;;;;;;21.56;64.29199;930.7316;;;;
2023/08/03 14:09:30;;;;;;;3;1.4;;;;;;;21.58;63.26563;930.6074;;;;
2023/08/03 14:11:57;;;;;;;2.8;1.2;;;;;;;21.65;63.5332;930.5914;;;;
2023/08/03 14:14:23;;;;;;;2.7;1.7;;;;;;;21.57;64.39844;930.6362;;;;
2023/08/03 14:17:25;;;;;;;2.8;1.5;;;;;;;21.42;63.54688;930.7236;;;;
2023/08/03 14:19:52;;;;;;;1.4;1.2;;;;;;;21.48;64.73828;930.8209;;;;
2023/08/03 14:22:17;;;;;;;3.6;1.5;;;;;;;21.45;63.31641;930.8151;;;;
2023/08/03 14:24:42;;;;;;;2.7;1.6;;;;;;;21.48;64.00098;930.713;;;;
2023/08/03 14:27:07;;;;;;;1.9;1.5;;;;;;;21.68;63.27832;930.6956;;;;
2023/08/03 14:29:34;;;;;;;2.8;1.3;;;;;;;21.56;61.59961;930.7608;;;;
2023/08/03 14:31:59;;;;;;;2.6;1.2;;;;;;;21.6;61.65137;930.7826;;;;
2023/08/03 14:34:27;;;;;;;3;1.3;;;;;;;21.42;63.58105;930.8541;;;;
2023/08/03 14:36:52;;;;;;;2.6;1.2;;;;;;;21.34;64.85742;930.9222;;;;
2023/08/03 14:39:17;;;;;;;1.8;1.2;;;;;;;21.15;65.74219;930.9227;;;;
2023/08/03 14:41:42;;;;;;;1.3;1.1;;;;;;;20.9;63.8457;930.942;;;;
2023/08/03 14:44:10;;;;;;;1.7;1.2;;;;;;;20.8;64.94238;930.89;;;;
2023/08/03 14:46:35;;;;;;;1.7;1.2;;;;;;;20.92;65.1709;930.8365;;;;